createdAt,value
2022-08-01T00:00:51.091Z,64.20
2022-08-01T00:03:17.833Z,64.00
2022-08-01T00:05:45.458Z,64.00
2022-08-01T00:08:12.248Z,63.90
2022-08-01T00:10:39.065Z,64.00
2022-08-01T00:13:05.884Z,64.20
2022-08-01T00:15:33.271Z,64.30
2022-08-01T00:18:00.080Z,64.20
2022-08-01T00:20:26.853Z,64.10
2022-08-01T00:22:53.716Z,64.10
2022-08-01T00:25:20.457Z,64.10
2022-08-01T00:28:00.943Z,64.30
2022-08-01T00:30:27.950Z,64.20
2022-08-01T00:32:54.701Z,64.10
2022-08-01T00:35:21.472Z,64.40
2022-08-01T00:37:48.196Z,64.60
2022-08-01T00:40:15.051Z,64.60
2022-08-01T00:42:43.765Z,64.60
2022-08-01T00:45:12.660Z,64.50
2022-08-01T00:47:39.907Z,64.40
2022-08-01T00:50:07.356Z,64.60
2022-08-01T00:52:35.179Z,64.60
2022-08-01T00:55:02.054Z,64.60
2022-08-01T00:58:03.638Z,64.50
2022-08-01T01:00:16.481Z,64.50
2022-08-01T01:02:44.736Z,64.50
2022-08-01T01:05:11.745Z,64.50
2022-08-01T01:08:03.024Z,64.70
2022-08-01T01:10:57.448Z,64.50
2022-08-01T01:14:09.854Z,64.80
2022-08-01T01:16:41.749Z,64.80
2022-08-01T01:19:14.575Z,64.70
2022-08-01T01:21:49.731Z,64.70
2022-08-01T01:24:40.836Z,64.50
2022-08-01T01:27:22.653Z,64.50
2022-08-01T01:29:58.511Z,64.50
2022-08-01T01:32:37.348Z,64.60
2022-08-01T01:35:08.934Z,64.70
2022-08-01T01:37:39.528Z,64.70
2022-08-01T01:40:08.410Z,64.60
2022-08-01T01:42:36.330Z,64.60
2022-08-01T01:45:05.445Z,64.60
2022-08-01T01:47:33.976Z,64.80
2022-08-01T01:50:02.402Z,65.00
2022-08-01T01:52:32.679Z,65.00
2022-08-01T01:55:02.398Z,65.00
2022-08-01T01:57:31.938Z,64.90
2022-08-01T02:00:00.499Z,64.90
2022-08-01T02:02:28.339Z,64.70
2022-08-01T02:04:56.299Z,64.70
2022-08-01T02:07:26.009Z,64.80
2022-08-01T02:09:53.687Z,65.00
2022-08-01T02:12:22.579Z,65.10
2022-08-01T02:14:50.634Z,64.90
2022-08-01T02:17:19.638Z,64.90
2022-08-01T02:19:46.813Z,65.00
2022-08-01T02:22:26.930Z,65.10
2022-08-01T02:25:00.527Z,65.10
2022-08-01T02:27:35.646Z,65.20
2022-08-01T02:30:09.456Z,65.30
2022-08-01T02:32:50.952Z,65.40
2022-08-01T02:35:29.079Z,65.40
2022-08-01T02:37:58.696Z,65.50
2022-08-01T02:40:29.350Z,65.40
2022-08-01T02:42:57.880Z,65.40
2022-08-01T02:45:27.423Z,65.40
2022-08-01T02:48:04.082Z,65.20
2022-08-01T02:50:32.589Z,65.10
2022-08-01T02:53:00.214Z,65.00
2022-08-01T02:55:28.829Z,65.10
2022-08-01T02:58:00.151Z,65.10
2022-08-01T03:00:29.204Z,65.10
2022-08-01T03:02:57.441Z,65.20
2022-08-01T03:05:25.953Z,65.10
2022-08-01T03:07:54.844Z,65.10
2022-08-01T03:10:22.222Z,65.20
2022-08-01T03:12:51.657Z,65.20
2022-08-01T03:15:20.288Z,65.30
2022-08-01T03:17:48.923Z,65.30
2022-08-01T03:20:17.467Z,65.10
2022-08-01T03:22:45.952Z,65.00
2022-08-01T03:25:15.020Z,65.00
2022-08-01T03:27:44.216Z,65.00
2022-08-01T03:30:12.391Z,65.10
2022-08-01T03:32:39.847Z,65.10
2022-08-01T03:35:07.105Z,65.10
2022-08-01T03:38:13.135Z,65.10
2022-08-01T03:40:39.456Z,65.20
2022-08-01T03:43:17.909Z,65.10
2022-08-01T03:45:50.569Z,65.20
2022-08-01T03:48:28.400Z,65.30
2022-08-01T03:50:56.101Z,65.30
2022-08-01T03:53:29.696Z,65.20
2022-08-01T03:55:57.705Z,65.30
2022-08-01T03:58:25.001Z,65.20
2022-08-01T04:00:52.292Z,65.10
2022-08-01T04:03:19.507Z,65.00
2022-08-01T04:05:46.351Z,64.90
2022-08-01T04:08:13.267Z,64.90
2022-08-01T04:10:40.069Z,65.10
2022-08-01T04:13:06.937Z,65.20
2022-08-01T04:15:33.896Z,65.30
2022-08-01T04:18:00.957Z,65.20
2022-08-01T04:20:27.874Z,65.20
2022-08-01T04:22:54.735Z,65.20
2022-08-01T04:25:33.629Z,65.10
2022-08-01T04:28:04.122Z,65.70
2022-08-01T04:30:34.982Z,64.70
2022-08-01T04:33:06.084Z,64.60
2022-08-01T04:36:02.777Z,64.70
2022-08-01T04:38:28.289Z,64.60
2022-08-01T04:40:55.769Z,64.60
2022-08-01T04:43:23.879Z,64.80
2022-08-01T04:45:52.447Z,64.90
2022-08-01T04:48:23.012Z,64.90
2022-08-01T04:50:50.226Z,64.90
2022-08-01T04:53:22.941Z,64.80
2022-08-01T04:55:49.827Z,64.60
2022-08-01T04:58:18.578Z,64.50
2022-08-01T05:00:48.892Z,64.50
2022-08-01T05:03:15.875Z,64.20
2022-08-01T05:05:42.818Z,64.20
2022-08-01T05:08:11.233Z,64.50
2022-08-01T05:10:38.279Z,64.20
2022-08-01T05:13:05.054Z,64.20
2022-08-01T05:15:31.926Z,63.90
2022-08-01T05:17:59.196Z,64.00
2022-08-01T05:20:26.025Z,63.80
2022-08-01T05:22:52.783Z,63.80
2022-08-01T05:25:20.543Z,63.60
2022-08-01T05:28:06.428Z,63.50
2022-08-01T05:30:33.271Z,63.10
2022-08-01T05:33:00.400Z,63.10
2022-08-01T05:35:47.917Z,63.30
2022-08-01T05:38:14.880Z,63.30
2022-08-01T05:40:44.675Z,63.60
2022-08-01T05:43:11.960Z,63.70
2022-08-01T05:45:38.955Z,63.80
2022-08-01T05:48:09.294Z,63.80
2022-08-01T05:50:36.144Z,63.80
2022-08-01T05:53:03.160Z,63.90
2022-08-01T05:55:30.109Z,63.80
2022-08-01T05:57:56.975Z,63.80
2022-08-01T06:00:25.928Z,63.70
2022-08-01T06:02:52.950Z,63.70
2022-08-01T06:05:20.001Z,64.70
2022-08-01T06:07:46.834Z,64.10
2022-08-01T06:10:13.686Z,64.30
2022-08-01T06:12:40.599Z,64.10
2022-08-01T06:15:08.447Z,64.10
2022-08-01T06:17:35.342Z,64.10
2022-08-01T06:20:02.509Z,64.20
2022-08-01T06:22:29.381Z,64.40
2022-08-01T06:24:57.873Z,65.10
2022-08-01T06:27:26.903Z,64.40
2022-08-01T06:29:57.667Z,64.10
2022-08-01T06:32:26.632Z,64.00
2022-08-01T06:34:55.279Z,64.00
2022-08-01T06:37:22.704Z,64.00
2022-08-01T06:39:50.660Z,64.00
2022-08-01T06:42:18.412Z,63.90
2022-08-01T06:44:46.276Z,64.00
2022-08-01T06:47:13.259Z,63.70
2022-08-01T06:49:40.126Z,63.80
2022-08-01T06:52:07.365Z,63.90
2022-08-01T06:54:34.544Z,64.00
2022-08-01T06:57:01.437Z,64.20
2022-08-01T06:59:28.263Z,64.70
2022-08-01T07:01:55.067Z,64.30
2022-08-01T07:04:21.821Z,64.60
2022-08-01T07:06:48.681Z,65.30
2022-08-01T07:09:16.577Z,65.80
2022-08-01T07:11:43.396Z,66.00
2022-08-01T07:14:10.276Z,66.10
2022-08-01T07:16:37.225Z,66.10
2022-08-01T07:19:04.099Z,66.40
2022-08-01T07:21:40.073Z,66.50
2022-08-01T07:24:14.995Z,66.80
2022-08-01T07:26:52.452Z,67.00
2022-08-01T07:29:27.783Z,67.20
2022-08-01T07:31:56.270Z,67.40
2022-08-01T07:34:24.132Z,67.40
2022-08-01T07:36:51.822Z,67.50
2022-08-01T07:39:18.898Z,67.60
2022-08-01T07:42:06.862Z,67.60
2022-08-01T07:44:33.109Z,67.60
2022-08-01T07:46:59.882Z,67.80
2022-08-01T07:49:26.831Z,67.60
2022-08-01T07:52:03.190Z,67.70
2022-08-01T07:54:34.414Z,67.70
2022-08-01T07:57:02.742Z,67.80
2022-08-01T07:59:29.648Z,67.50
2022-08-01T08:01:56.490Z,67.30
2022-08-01T08:04:23.353Z,67.50
2022-08-01T08:06:50.372Z,67.20
2022-08-01T08:09:17.395Z,67.00
2022-08-01T08:11:48.333Z,67.10
2022-08-01T08:14:16.688Z,67.60
2022-08-01T08:16:44.222Z,67.80
2022-08-01T08:19:11.428Z,68.70
2022-08-01T08:21:38.971Z,69.50
2022-08-01T08:24:26.746Z,70.00
2022-08-01T08:26:58.959Z,69.90
2022-08-01T08:29:28.005Z,70.20
2022-08-01T08:31:58.638Z,69.90
2022-08-01T08:34:26.954Z,70.00
2022-08-01T08:36:53.890Z,70.00
2022-08-01T08:39:21.518Z,70.00
2022-08-01T08:41:50.073Z,69.90
2022-08-01T08:44:18.510Z,69.50
2022-08-01T08:46:48.064Z,69.60
2022-08-01T08:49:24.680Z,69.60
2022-08-01T08:51:53.788Z,69.50
2022-08-01T08:54:28.053Z,68.30
2022-08-01T08:56:59.702Z,67.70
2022-08-01T08:59:27.402Z,67.10
2022-08-01T09:01:54.490Z,67.70
2022-08-01T09:04:26.095Z,67.70
2022-08-01T09:06:54.425Z,68.20
2022-08-01T09:09:21.438Z,67.60
2022-08-01T09:11:56.794Z,67.50
2022-08-01T09:14:27.290Z,67.80
2022-08-01T09:17:07.584Z,68.40
2022-08-01T09:19:49.825Z,68.90
2022-08-01T09:22:22.045Z,67.00
2022-08-01T09:25:02.449Z,65.90
2022-08-01T09:27:30.483Z,65.90
2022-08-01T09:30:11.727Z,66.30
2022-08-01T09:33:11.110Z,65.80
2022-08-01T09:35:46.435Z,66.70
2022-08-01T09:38:17.669Z,66.10
2022-08-01T09:40:47.598Z,66.00
2022-08-01T09:43:16.724Z,66.70
2022-08-01T09:45:45.790Z,65.90
2022-08-01T09:48:18.312Z,65.60
2022-08-01T09:50:47.925Z,66.30
2022-08-01T09:53:24.547Z,65.70
2022-08-01T09:56:11.806Z,65.30
2022-08-01T09:59:01.401Z,64.80
2022-08-01T10:01:42.124Z,66.20
2022-08-01T10:04:13.929Z,66.10
2022-08-01T10:06:53.614Z,66.00
2022-08-01T10:09:40.317Z,65.50
2022-08-01T10:12:15.289Z,65.10
2022-08-01T10:14:45.895Z,63.80
2022-08-01T10:17:18.275Z,61.50
2022-08-01T10:19:46.712Z,62.00
2022-08-01T10:22:17.549Z,61.90
2022-08-01T10:24:48.132Z,62.10
2022-08-01T10:27:24.486Z,59.70
2022-08-01T10:30:14.180Z,60.10
2022-08-01T10:32:50.837Z,60.10
2022-08-01T10:35:45.967Z,60.30
2022-08-01T10:38:10.698Z,58.50
2022-08-01T10:40:42.420Z,57.00
2022-08-01T10:43:11.381Z,58.20
2022-08-01T10:45:39.136Z,57.10
2022-08-01T10:48:23.293Z,57.60
2022-08-01T10:50:54.931Z,58.30
2022-08-01T10:53:31.166Z,58.20
2022-08-01T10:56:13.227Z,58.40
2022-08-01T10:58:44.882Z,56.40
2022-08-01T11:01:26.165Z,48.80
2022-08-01T11:04:01.416Z,50.00
2022-08-01T11:06:34.530Z,50.30
2022-08-01T11:09:24.775Z,51.30
2022-08-01T11:12:13.487Z,54.30
2022-08-01T11:15:00.045Z,53.80
2022-08-01T11:17:37.472Z,54.50
2022-08-01T11:20:13.764Z,50.80
2022-08-01T11:23:02.266Z,52.50
2022-08-01T11:26:06.323Z,53.40
2022-08-01T11:28:31.998Z,49.40
2022-08-01T11:31:14.103Z,49.30
2022-08-01T11:33:46.155Z,52.00
2022-08-01T11:36:14.812Z,51.70
2022-08-01T11:38:58.711Z,52.10
2022-08-01T11:41:39.112Z,53.80
2022-08-01T11:44:12.918Z,53.20
2022-08-01T11:46:57.024Z,52.00
2022-08-01T11:49:35.955Z,54.20
2022-08-01T11:52:24.837Z,54.60
2022-08-01T11:54:56.825Z,55.60
2022-08-01T11:57:34.470Z,50.80
2022-08-01T12:00:20.751Z,45.80
2022-08-01T12:02:59.117Z,44.70
2022-08-01T12:05:27.593Z,43.70
2022-08-01T12:07:55.985Z,41.10
2022-08-01T12:10:25.448Z,40.20
2022-08-01T12:12:59.946Z,41.10
2022-08-01T12:15:35.089Z,40.50
2022-08-01T12:18:05.468Z,41.20
2022-08-01T12:20:40.093Z,42.50
2022-08-01T12:23:10.651Z,36.20
2022-08-01T12:25:40.097Z,36.10
2022-08-01T12:28:10.151Z,38.10
2022-08-01T12:30:38.020Z,40.10
2022-08-01T12:33:06.794Z,38.60
2022-08-01T12:35:34.602Z,38.30
2022-08-01T12:38:20.015Z,39.70
2022-08-01T12:40:52.967Z,39.90
2022-08-01T12:43:28.298Z,39.30
2022-08-01T12:45:59.889Z,38.90
2022-08-01T12:48:27.713Z,38.40
2022-08-01T12:50:58.410Z,40.20
2022-08-01T12:53:25.609Z,35.50
2022-08-01T12:55:58.143Z,35.70
2022-08-01T12:58:34.796Z,35.80
2022-08-01T13:01:10.397Z,31.60
2022-08-01T13:03:38.304Z,30.00
2022-08-01T13:06:17.222Z,33.10
2022-08-01T13:08:46.078Z,33.30
2022-08-01T13:11:18.259Z,36.50
2022-08-01T13:13:50.647Z,34.70
2022-08-01T13:16:27.929Z,33.90
2022-08-01T13:19:06.396Z,33.80
2022-08-01T13:21:34.502Z,35.50
2022-08-01T13:24:25.310Z,32.50
2022-08-01T13:26:57.114Z,32.80
2022-08-01T13:29:34.910Z,32.40
2022-08-01T13:32:28.817Z,35.10
2022-08-01T13:35:09.085Z,34.40
2022-08-01T13:37:38.856Z,35.00
2022-08-01T13:40:07.326Z,31.70
2022-08-01T13:42:34.455Z,30.00
2022-08-01T13:45:03.101Z,28.70
2022-08-01T13:47:32.514Z,28.10
2022-08-01T13:50:03.217Z,28.90
2022-08-01T13:52:31.656Z,29.80
2022-08-01T13:54:58.981Z,29.20
2022-08-01T13:57:25.855Z,29.50
2022-08-01T14:00:06.833Z,29.40
2022-08-01T14:02:38.837Z,29.00
2022-08-01T14:05:06.101Z,29.50
2022-08-01T14:07:32.963Z,28.70
2022-08-01T14:10:18.697Z,28.50
2022-08-01T14:12:50.801Z,28.90
2022-08-01T14:15:38.569Z,29.40
2022-08-01T14:18:06.325Z,28.00
2022-08-01T14:20:34.199Z,27.20
2022-08-01T14:23:01.084Z,27.50
2022-08-01T14:26:02.514Z,28.20
2022-08-01T14:28:14.668Z,26.40
2022-08-01T14:30:43.476Z,27.40
2022-08-01T14:33:11.829Z,26.90
2022-08-01T14:36:01.604Z,27.10
2022-08-01T14:38:31.304Z,27.40
2022-08-01T14:40:59.356Z,27.10
2022-08-01T14:43:32.244Z,26.70
2022-08-01T14:46:00.942Z,27.00
2022-08-01T14:48:27.732Z,27.80
2022-08-01T14:50:54.682Z,27.80
2022-08-01T14:53:21.457Z,27.60
2022-08-01T14:55:48.387Z,28.50
2022-08-01T14:58:15.400Z,27.70
2022-08-01T15:00:42.692Z,28.40
2022-08-01T15:03:09.668Z,28.00
2022-08-01T15:05:37.318Z,28.50
2022-08-01T15:08:06.581Z,27.90
2022-08-01T15:10:33.375Z,28.70
2022-08-01T15:13:01.093Z,28.10
2022-08-01T15:15:28.564Z,28.30
2022-08-01T15:17:55.636Z,28.60
2022-08-01T15:20:22.559Z,28.90
2022-08-01T15:22:49.501Z,29.30
2022-08-01T15:25:16.403Z,29.60
2022-08-01T15:27:43.467Z,30.60
2022-08-01T15:30:10.467Z,31.70
2022-08-01T15:32:37.323Z,31.50
2022-08-01T15:35:04.358Z,31.90
2022-08-01T15:37:31.113Z,30.90
2022-08-01T15:39:57.921Z,30.10
2022-08-01T15:42:27.281Z,30.20
2022-08-01T15:44:54.479Z,30.80
2022-08-01T15:47:22.528Z,30.10
2022-08-01T15:49:52.126Z,30.60
2022-08-01T15:52:21.319Z,29.90
2022-08-01T15:54:50.096Z,30.00
2022-08-01T15:57:17.220Z,28.90
2022-08-01T15:59:43.983Z,29.50
2022-08-01T16:02:11.352Z,29.20
2022-08-01T16:04:38.838Z,30.00
2022-08-01T16:07:06.226Z,29.60
2022-08-01T16:09:33.041Z,29.00
2022-08-01T16:12:00.091Z,29.30
2022-08-01T16:14:26.857Z,28.70
2022-08-01T16:16:54.244Z,29.10
2022-08-01T16:19:21.769Z,29.50
2022-08-01T16:21:48.697Z,29.40
2022-08-01T16:24:15.831Z,29.10
2022-08-01T16:26:43.220Z,29.90
2022-08-01T16:29:09.984Z,29.70
2022-08-01T16:31:41.899Z,30.30
2022-08-01T16:34:23.607Z,30.30
2022-08-01T16:36:52.705Z,30.80
2022-08-01T16:39:23.004Z,30.20
2022-08-01T16:41:55.314Z,31.40
2022-08-01T16:44:29.031Z,29.90
2022-08-01T16:47:05.426Z,30.00
2022-08-01T16:49:33.068Z,30.60
2022-08-01T16:52:00.153Z,30.70
2022-08-01T16:54:27.724Z,31.40
2022-08-01T16:56:56.021Z,31.10
2022-08-01T16:59:35.086Z,32.30
2022-08-01T17:02:09.507Z,32.50
2022-08-01T17:04:36.400Z,33.10
2022-08-01T17:07:03.282Z,33.00
2022-08-01T17:09:30.126Z,33.80
2022-08-01T17:11:56.965Z,32.80
2022-08-01T17:14:24.130Z,33.00
2022-08-01T17:16:50.959Z,33.20
2022-08-01T17:19:17.915Z,34.20
2022-08-01T17:21:44.749Z,34.20
2022-08-01T17:24:16.405Z,32.30
2022-08-01T17:26:43.563Z,33.10
2022-08-01T17:29:10.479Z,32.70
2022-08-01T17:31:37.356Z,33.70
2022-08-01T17:34:04.147Z,34.00
2022-08-01T17:36:30.929Z,33.70
2022-08-01T17:38:59.312Z,33.80
2022-08-01T17:41:26.568Z,33.80
2022-08-01T17:43:53.448Z,34.50
2022-08-01T17:46:20.329Z,34.20
2022-08-01T17:48:47.193Z,34.20
2022-08-01T17:51:16.147Z,35.10
2022-08-01T17:53:56.223Z,35.00
2022-08-01T17:56:25.787Z,34.20
2022-08-01T17:58:52.836Z,34.10
2022-08-01T18:01:20.691Z,33.20
2022-08-01T18:03:48.135Z,34.50
2022-08-01T18:06:19.687Z,33.50
2022-08-01T18:08:53.141Z,33.90
2022-08-01T18:11:22.680Z,33.90
2022-08-01T18:13:51.669Z,33.90
2022-08-01T18:16:19.270Z,33.40
2022-08-01T18:18:46.142Z,33.80
2022-08-01T18:21:13.065Z,34.30
2022-08-01T18:23:40.272Z,34.20
2022-08-01T18:26:11.242Z,34.90
2022-08-01T18:28:46.521Z,35.00
2022-08-01T18:31:16.602Z,35.60
2022-08-01T18:33:44.050Z,36.10
2022-08-01T18:36:16.755Z,36.70
2022-08-01T18:38:58.720Z,36.90
2022-08-01T18:41:25.837Z,37.20
2022-08-01T18:43:54.009Z,38.00
2022-08-01T18:46:33.075Z,37.20
2022-08-01T18:49:00.076Z,37.50
2022-08-01T18:51:28.580Z,37.60
2022-08-01T18:53:57.624Z,37.80
2022-08-01T18:56:24.547Z,38.80
2022-08-01T18:58:52.733Z,39.70
2022-08-01T19:01:19.669Z,39.40
2022-08-01T19:03:47.067Z,40.30
2022-08-01T19:06:13.947Z,41.10
2022-08-01T19:08:41.133Z,41.10
2022-08-01T19:11:08.140Z,41.50
2022-08-01T19:13:35.092Z,42.40
2022-08-01T19:16:01.892Z,43.10
2022-08-01T19:18:28.660Z,43.30
2022-08-01T19:20:55.495Z,41.80
2022-08-01T19:23:40.890Z,41.40
2022-08-01T19:26:12.530Z,42.00
2022-08-01T19:28:51.221Z,42.40
2022-08-01T19:31:23.149Z,43.00
2022-08-01T19:33:51.952Z,43.50
2022-08-01T19:36:19.316Z,43.70
2022-08-01T19:38:46.897Z,43.60
2022-08-01T19:41:15.994Z,44.00
2022-08-01T19:43:46.554Z,44.30
2022-08-01T19:46:17.680Z,44.20
2022-08-01T19:48:49.943Z,44.20
2022-08-01T19:51:22.872Z,44.20
2022-08-01T19:54:05.218Z,44.40
2022-08-01T19:56:39.731Z,44.50
2022-08-01T19:59:10.536Z,44.80
2022-08-01T20:01:38.331Z,45.00
2022-08-01T20:04:06.125Z,45.00
2022-08-01T20:06:40.571Z,45.40
2022-08-01T20:09:08.330Z,45.90
2022-08-01T20:11:36.548Z,46.20
2022-08-01T20:14:04.266Z,46.40
2022-08-01T20:16:35.052Z,46.40
2022-08-01T20:19:02.081Z,46.90
2022-08-01T20:21:29.062Z,46.80
2022-08-01T20:24:02.676Z,47.00
2022-08-01T20:26:31.196Z,47.60
2022-08-01T20:28:58.630Z,47.90
2022-08-01T20:31:28.670Z,47.70
2022-08-01T20:34:11.157Z,48.00
2022-08-01T20:36:54.546Z,48.20
2022-08-01T20:39:24.321Z,48.10
2022-08-01T20:41:59.586Z,47.40
2022-08-01T20:44:27.735Z,47.00
2022-08-01T20:46:54.835Z,47.50
2022-08-01T20:49:22.824Z,48.30
2022-08-01T20:51:51.620Z,49.00
2022-08-01T20:54:19.372Z,49.50
2022-08-01T20:56:57.049Z,49.80
2022-08-01T20:59:39.449Z,49.80
2022-08-01T21:02:57.201Z,49.60
2022-08-01T21:05:59.172Z,50.00
2022-08-01T21:08:40.780Z,50.70
2022-08-01T21:11:14.057Z,50.30
2022-08-01T21:13:42.987Z,50.10
2022-08-01T21:16:23.912Z,50.70
2022-08-01T21:22:00.399Z,51.50
2022-08-01T21:24:33.341Z,51.70
2022-08-01T21:27:01.737Z,51.60
2022-08-01T21:29:32.439Z,51.70
2022-08-01T21:32:13.145Z,52.00
2022-08-01T21:34:40.111Z,52.30
2022-08-01T21:37:10.595Z,52.50
2022-08-01T21:39:38.626Z,52.10
2022-08-01T21:42:09.254Z,51.90
2022-08-01T21:44:47.016Z,51.40
2022-08-01T21:47:15.492Z,51.10
2022-08-01T21:49:42.499Z,51.30
2022-08-01T21:52:18.062Z,51.70
2022-08-01T21:55:03.824Z,52.50
2022-08-01T21:57:42.333Z,52.90
2022-08-01T22:00:25.328Z,52.60
2022-08-01T22:03:19.969Z,52.70
2022-08-01T22:05:51.628Z,53.10
2022-08-01T22:08:34.422Z,53.20
2022-08-01T22:11:05.989Z,53.40
2022-08-01T22:13:34.545Z,53.50
2022-08-01T22:16:04.287Z,53.90
2022-08-01T22:18:32.897Z,53.90
2022-08-01T22:21:01.465Z,53.80
2022-08-01T22:23:28.365Z,53.80
2022-08-01T22:25:56.045Z,53.80
2022-08-01T22:28:23.831Z,53.70
2022-08-01T22:30:52.167Z,53.80
2022-08-01T22:33:19.781Z,53.30
2022-08-01T22:35:52.678Z,53.20
2022-08-01T22:38:22.801Z,52.80
2022-08-01T22:40:53.418Z,52.80
2022-08-01T22:43:36.840Z,52.60
2022-08-01T22:46:26.910Z,53.00
2022-08-01T22:49:33.905Z,52.80
2022-08-01T22:52:12.033Z,53.00
2022-08-01T22:54:41.320Z,53.00
2022-08-01T22:57:16.034Z,53.40
2022-08-01T23:00:06.317Z,53.50
2022-08-01T23:02:36.666Z,53.90
2022-08-01T23:05:07.676Z,54.10
2022-08-01T23:07:38.864Z,54.40
2022-08-01T23:10:07.566Z,54.50
2022-08-01T23:12:34.485Z,54.50
2022-08-01T23:15:01.963Z,54.00
2022-08-01T23:17:31.549Z,53.60
2022-08-01T23:20:03.505Z,53.50
2022-08-01T23:22:32.661Z,53.70
2022-08-01T23:25:04.128Z,53.90
2022-08-01T23:27:51.469Z,54.20
2022-08-01T23:30:25.582Z,54.10
2022-08-01T23:32:52.528Z,54.30
2022-08-01T23:35:19.638Z,54.20
2022-08-01T23:37:46.529Z,54.30
2022-08-01T23:40:13.358Z,54.50
2022-08-01T23:42:40.208Z,54.30
2022-08-01T23:45:07.592Z,54.20
2022-08-01T23:47:34.425Z,53.60
2022-08-01T23:50:01.278Z,53.50
2022-08-01T23:52:32.171Z,53.10
2022-08-01T23:55:03.426Z,53.10
2022-08-01T23:57:42.269Z,52.90
